sensor_id;sensor_type;location;lat;lon;timestamp;P1;durP1;ratioP1;P2;durP2;ratioP2
71150;SDS011;59071;42.138;24.768;2024-01-06T00:00:11;138.35;;;70.85;;
71150;SDS011;59071;42.138;24.768;2024-01-06T00:02:37;141.43;;;71.05;;
71150;SDS011;59071;42.138;24.768;2024-01-06T00:05:02;125.63;;;65.88;;
71150;SDS011;59071;42.138;24.768;2024-01-06T00:07:28;115.15;;;60.33;;
71150;SDS011;59071;42.138;24.768;2024-01-06T00:09:53;103.75;;;48.88;;
71150;SDS011;59071;42.138;24.768;2024-01-06T00:12:19;77.45;;;40.22;;
71150;SDS011;59071;42.138;24.768;2024-01-06T00:14:44;78.78;;;39.83;;
71150;SDS011;59071;42.138;24.768;2024-01-06T00:17:10;84.03;;;43.97;;
71150;SDS011;59071;42.138;24.768;2024-01-06T00:19:36;90.95;;;44.45;;
71150;SDS011;59071;42.138;24.768;2024-01-06T00:22:02;85.90;;;43.90;;
71150;SDS011;59071;42.138;24.768;2024-01-06T00:24:27;86.47;;;45.38;;
71150;SDS011;59071;42.138;24.768;2024-01-06T00:26:53;99.22;;;50.72;;
71150;SDS011;59071;42.138;24.768;2024-01-06T00:29:18;98.97;;;50.58;;
71150;SDS011;59071;42.138;24.768;2024-01-06T00:31:43;96.65;;;50.50;;
71150;SDS011;59071;42.138;24.768;2024-01-06T00:34:09;105.05;;;54.08;;
71150;SDS011;59071;42.138;24.768;2024-01-06T00:36:34;108.35;;;55.33;;
71150;SDS011;59071;42.138;24.768;2024-01-06T00:38:59;97.38;;;50.75;;
71150;SDS011;59071;42.138;24.768;2024-01-06T00:41:25;99.80;;;50.30;;
71150;SDS011;59071;42.138;24.768;2024-01-06T00:43:51;93.05;;;49.25;;
71150;SDS011;59071;42.138;24.768;2024-01-06T00:46:16;105.65;;;49.70;;
71150;SDS011;59071;42.138;24.768;2024-01-06T00:48:42;97.20;;;50.47;;
71150;SDS011;59071;42.138;24.768;2024-01-06T00:51:07;82.90;;;44.53;;
71150;SDS011;59071;42.138;24.768;2024-01-06T00:53:32;75.80;;;39.63;;
71150;SDS011;59071;42.138;24.768;2024-01-06T00:55:58;73.97;;;37.63;;
71150;SDS011;59071;42.138;24.768;2024-01-06T00:58:23;73.10;;;36.45;;
71150;SDS011;59071;42.138;24.768;2024-01-06T01:00:48;69.10;;;36.63;;
71150;SDS011;59071;42.138;24.768;2024-01-06T01:03:14;74.97;;;38.47;;
71150;SDS011;59071;42.138;24.768;2024-01-06T01:05:40;74.70;;;38.92;;
71150;SDS011;59071;42.138;24.768;2024-01-06T01:08:05;74.07;;;38.13;;
71150;SDS011;59071;42.138;24.768;2024-01-06T01:10:31;67.32;;;35.97;;
71150;SDS011;59071;42.138;24.768;2024-01-06T01:12:56;72.35;;;35.13;;
71150;SDS011;59071;42.138;24.768;2024-01-06T01:15:21;65.05;;;34.20;;
71150;SDS011;59071;42.138;24.768;2024-01-06T01:17:47;66.15;;;34.45;;
71150;SDS011;59071;42.138;24.768;2024-01-06T01:20:12;61.72;;;31.10;;
71150;SDS011;59071;42.138;24.768;2024-01-06T01:22:38;57.15;;;30.83;;
71150;SDS011;59071;42.138;24.768;2024-01-06T01:25:03;60.53;;;31.25;;
71150;SDS011;59071;42.138;24.768;2024-01-06T01:27:32;60.42;;;33.25;;
71150;SDS011;59071;42.138;24.768;2024-01-06T01:29:58;66.13;;;32.80;;
71150;SDS011;59071;42.138;24.768;2024-01-06T01:32:24;64.03;;;31.67;;
71150;SDS011;59071;42.138;24.768;2024-01-06T01:34:49;66.82;;;33.72;;
71150;SDS011;59071;42.138;24.768;2024-01-06T01:37:15;63.58;;;32.42;;
71150;SDS011;59071;42.138;24.768;2024-01-06T01:39:40;65.70;;;32.40;;
71150;SDS011;59071;42.138;24.768;2024-01-06T01:42:06;60.95;;;31.60;;
71150;SDS011;59071;42.138;24.768;2024-01-06T01:44:31;64.00;;;32.45;;
71150;SDS011;59071;42.138;24.768;2024-01-06T01:46:56;64.47;;;32.20;;
71150;SDS011;59071;42.138;24.768;2024-01-06T01:49:22;64.80;;;33.63;;
71150;SDS011;59071;42.138;24.768;2024-01-06T01:51:47;62.97;;;33.15;;
71150;SDS011;59071;42.138;24.768;2024-01-06T01:54:14;63.28;;;33.33;;
71150;SDS011;59071;42.138;24.768;2024-01-06T01:56:40;59.83;;;33.55;;
71150;SDS011;59071;42.138;24.768;2024-01-06T01:59:13;63.78;;;33.15;;
71150;SDS011;59071;42.138;24.768;2024-01-06T02:01:41;65.55;;;33.15;;
71150;SDS011;59071;42.138;24.768;2024-01-06T02:04:07;67.55;;;34.83;;
71150;SDS011;59071;42.138;24.768;2024-01-06T02:06:33;59.85;;;32.30;;
71150;SDS011;59071;42.138;24.768;2024-01-06T02:08:59;66.93;;;36.40;;
71150;SDS011;59071;42.138;24.768;2024-01-06T02:11:24;84.05;;;43.33;;
71150;SDS011;59071;42.138;24.768;2024-01-06T02:13:50;78.18;;;40.53;;
71150;SDS011;59071;42.138;24.768;2024-01-06T02:16:15;74.03;;;38.83;;
71150;SDS011;59071;42.138;24.768;2024-01-06T02:18:40;74.82;;;39.83;;
71150;SDS011;59071;42.138;24.768;2024-01-06T02:21:06;80.05;;;41.28;;
71150;SDS011;59071;42.138;24.768;2024-01-06T02:23:33;81.63;;;40.88;;
71150;SDS011;59071;42.138;24.768;2024-01-06T02:26:00;72.95;;;39.22;;
71150;SDS011;59071;42.138;24.768;2024-01-06T02:28:25;74.53;;;39.75;;
71150;SDS011;59071;42.138;24.768;2024-01-06T02:30:51;67.85;;;36.90;;
71150;SDS011;59071;42.138;24.768;2024-01-06T02:33:16;80.65;;;37.65;;
71150;SDS011;59071;42.138;24.768;2024-01-06T02:35:44;67.47;;;36.35;;
71150;SDS011;59071;42.138;24.768;2024-01-06T02:38:12;69.18;;;36.30;;
71150;SDS011;59071;42.138;24.768;2024-01-06T02:40:38;70.03;;;37.30;;
71150;SDS011;59071;42.138;24.768;2024-01-06T02:43:03;67.45;;;36.67;;
71150;SDS011;59071;42.138;24.768;2024-01-06T02:45:29;62.17;;;33.58;;
71150;SDS011;59071;42.138;24.768;2024-01-06T02:47:54;64.55;;;34.58;;
71150;SDS011;59071;42.138;24.768;2024-01-06T02:50:19;65.05;;;33.40;;
71150;SDS011;59071;42.138;24.768;2024-01-06T02:52:45;63.05;;;33.42;;
71150;SDS011;59071;42.138;24.768;2024-01-06T02:55:10;59.58;;;31.50;;
71150;SDS011;59071;42.138;24.768;2024-01-06T02:57:36;55.60;;;29.08;;
71150;SDS011;59071;42.138;24.768;2024-01-06T03:00:02;48.75;;;26.73;;
71150;SDS011;59071;42.138;24.768;2024-01-06T03:02:28;48.45;;;26.02;;
71150;SDS011;59071;42.138;24.768;2024-01-06T03:04:54;49.65;;;26.42;;
71150;SDS011;59071;42.138;24.768;2024-01-06T03:07:20;46.92;;;24.20;;
71150;SDS011;59071;42.138;24.768;2024-01-06T03:09:45;48.38;;;24.17;;
71150;SDS011;59071;42.138;24.768;2024-01-06T03:12:11;39.45;;;22.08;;
71150;SDS011;59071;42.138;24.768;2024-01-06T03:14:36;39.97;;;20.52;;
71150;SDS011;59071;42.138;24.768;2024-01-06T03:17:02;41.60;;;23.55;;
71150;SDS011;59071;42.138;24.768;2024-01-06T03:19:28;57.67;;;30.83;;
71150;SDS011;59071;42.138;24.768;2024-01-06T03:21:54;48.60;;;25.13;;
71150;SDS011;59071;42.138;24.768;2024-01-06T03:24:23;45.30;;;23.42;;
71150;SDS011;59071;42.138;24.768;2024-01-06T03:26:50;45.08;;;24.05;;
71150;SDS011;59071;42.138;24.768;2024-01-06T03:29:15;34.65;;;19.50;;
71150;SDS011;59071;42.138;24.768;2024-01-06T03:31:44;52.95;;;27.90;;
71150;SDS011;59071;42.138;24.768;2024-01-06T03:34:10;42.70;;;22.65;;
71150;SDS011;59071;42.138;24.768;2024-01-06T03:36:39;41.35;;;21.80;;
71150;SDS011;59071;42.138;24.768;2024-01-06T03:39:04;49.55;;;24.17;;
71150;SDS011;59071;42.138;24.768;2024-01-06T03:41:30;41.58;;;22.13;;
71150;SDS011;59071;42.138;24.768;2024-01-06T03:43:56;45.30;;;22.52;;
71150;SDS011;59071;42.138;24.768;2024-01-06T03:46:22;38.08;;;19.70;;
71150;SDS011;59071;42.138;24.768;2024-01-06T03:48:47;38.97;;;19.15;;
71150;SDS011;59071;42.138;24.768;2024-01-06T03:51:13;37.25;;;19.50;;
71150;SDS011;59071;42.138;24.768;2024-01-06T03:53:38;32.15;;;18.73;;
71150;SDS011;59071;42.138;24.768;2024-01-06T03:56:05;32.42;;;18.38;;
71150;SDS011;59071;42.138;24.768;2024-01-06T03:58:31;35.65;;;18.80;;
71150;SDS011;59071;42.138;24.768;2024-01-06T04:00:56;37.63;;;19.33;;
71150;SDS011;59071;42.138;24.768;2024-01-06T04:03:21;34.67;;;19.67;;
71150;SDS011;59071;42.138;24.768;2024-01-06T04:05:47;32.35;;;17.80;;
71150;SDS011;59071;42.138;24.768;2024-01-06T04:08:12;34.13;;;17.92;;
71150;SDS011;59071;42.138;24.768;2024-01-06T04:10:37;34.03;;;18.02;;
71150;SDS011;59071;42.138;24.768;2024-01-06T04:13:03;30.75;;;17.60;;
71150;SDS011;59071;42.138;24.768;2024-01-06T04:15:29;33.30;;;17.90;;
71150;SDS011;59071;42.138;24.768;2024-01-06T04:17:54;34.10;;;17.98;;
71150;SDS011;59071;42.138;24.768;2024-01-06T04:20:20;33.05;;;18.30;;
71150;SDS011;59071;42.138;24.768;2024-01-06T04:22:45;38.00;;;19.85;;
71150;SDS011;59071;42.138;24.768;2024-01-06T04:25:11;34.83;;;19.58;;
71150;SDS011;59071;42.138;24.768;2024-01-06T04:27:36;38.53;;;19.90;;
71150;SDS011;59071;42.138;24.768;2024-01-06T04:30:01;40.38;;;20.70;;
71150;SDS011;59071;42.138;24.768;2024-01-06T04:32:27;34.63;;;19.05;;
71150;SDS011;59071;42.138;24.768;2024-01-06T04:34:52;35.38;;;18.55;;
71150;SDS011;59071;42.138;24.768;2024-01-06T04:37:18;37.30;;;18.80;;
71150;SDS011;59071;42.138;24.768;2024-01-06T04:39:43;37.53;;;18.55;;
71150;SDS011;59071;42.138;24.768;2024-01-06T04:42:08;31.33;;;17.17;;
71150;SDS011;59071;42.138;24.768;2024-01-06T04:44:34;33.38;;;16.98;;
71150;SDS011;59071;42.138;24.768;2024-01-06T04:46:59;29.05;;;16.45;;
71150;SDS011;59071;42.138;24.768;2024-01-06T04:49:25;27.15;;;15.05;;
71150;SDS011;59071;42.138;24.768;2024-01-06T04:51:50;26.13;;;13.52;;
71150;SDS011;59071;42.138;24.768;2024-01-06T04:54:16;25.48;;;13.93;;
71150;SDS011;59071;42.138;24.768;2024-01-06T04:56:41;25.27;;;13.20;;
71150;SDS011;59071;42.138;24.768;2024-01-06T04:59:06;25.30;;;12.18;;
71150;SDS011;59071;42.138;24.768;2024-01-06T05:01:32;20.00;;;11.75;;
71150;SDS011;59071;42.138;24.768;2024-01-06T05:03:58;23.50;;;12.73;;
71150;SDS011;59071;42.138;24.768;2024-01-06T05:06:24;22.42;;;12.30;;
71150;SDS011;59071;42.138;24.768;2024-01-06T05:08:49;21.85;;;12.32;;
71150;SDS011;59071;42.138;24.768;2024-01-06T05:11:15;23.05;;;12.07;;
71150;SDS011;59071;42.138;24.768;2024-01-06T05:13:41;21.98;;;12.32;;
71150;SDS011;59071;42.138;24.768;2024-01-06T05:16:07;25.05;;;13.32;;
71150;SDS011;59071;42.138;24.768;2024-01-06T05:18:33;26.52;;;13.63;;
71150;SDS011;59071;42.138;24.768;2024-01-06T05:20:59;28.60;;;14.63;;
71150;SDS011;59071;42.138;24.768;2024-01-06T05:23:25;28.30;;;14.77;;
71150;SDS011;59071;42.138;24.768;2024-01-06T05:25:50;25.08;;;13.65;;
71150;SDS011;59071;42.138;24.768;2024-01-06T05:28:15;28.55;;;14.27;;
71150;SDS011;59071;42.138;24.768;2024-01-06T05:30:41;26.90;;;14.73;;
71150;SDS011;59071;42.138;24.768;2024-01-06T05:33:09;22.38;;;13.20;;
71150;SDS011;59071;42.138;24.768;2024-01-06T05:35:34;27.85;;;13.40;;
71150;SDS011;59071;42.138;24.768;2024-01-06T05:38:00;24.50;;;13.35;;
71150;SDS011;59071;42.138;24.768;2024-01-06T05:40:26;24.95;;;13.43;;
71150;SDS011;59071;42.138;24.768;2024-01-06T05:42:51;23.23;;;13.35;;
71150;SDS011;59071;42.138;24.768;2024-01-06T05:45:20;21.83;;;12.05;;
71150;SDS011;59071;42.138;24.768;2024-01-06T05:47:46;28.60;;;13.65;;
71150;SDS011;59071;42.138;24.768;2024-01-06T05:50:11;24.70;;;13.32;;
71150;SDS011;59071;42.138;24.768;2024-01-06T05:52:36;24.05;;;13.13;;
71150;SDS011;59071;42.138;24.768;2024-01-06T05:55:02;23.50;;;12.65;;
71150;SDS011;59071;42.138;24.768;2024-01-06T05:57:27;28.73;;;13.80;;
71150;SDS011;59071;42.138;24.768;2024-01-06T05:59:53;28.95;;;15.18;;
71150;SDS011;59071;42.138;24.768;2024-01-06T06:02:18;28.85;;;15.05;;
71150;SDS011;59071;42.138;24.768;2024-01-06T06:04:44;30.02;;;15.30;;
71150;SDS011;59071;42.138;24.768;2024-01-06T06:07:09;31.80;;;14.90;;
71150;SDS011;59071;42.138;24.768;2024-01-06T06:09:34;24.63;;;13.98;;
71150;SDS011;59071;42.138;24.768;2024-01-06T06:12:00;29.30;;;14.90;;
71150;SDS011;59071;42.138;24.768;2024-01-06T06:14:25;24.35;;;13.48;;
71150;SDS011;59071;42.138;24.768;2024-01-06T06:16:51;22.23;;;13.82;;
71150;SDS011;59071;42.138;24.768;2024-01-06T06:19:16;22.67;;;12.82;;
71150;SDS011;59071;42.138;24.768;2024-01-06T06:21:43;22.35;;;13.13;;
71150;SDS011;59071;42.138;24.768;2024-01-06T06:24:08;24.20;;;13.13;;
71150;SDS011;59071;42.138;24.768;2024-01-06T06:26:34;24.55;;;12.75;;
71150;SDS011;59071;42.138;24.768;2024-01-06T06:28:59;24.75;;;13.25;;
71150;SDS011;59071;42.138;24.768;2024-01-06T06:31:25;21.17;;;13.15;;
71150;SDS011;59071;42.138;24.768;2024-01-06T06:33:50;23.35;;;13.20;;
71150;SDS011;59071;42.138;24.768;2024-01-06T06:36:16;21.40;;;12.38;;
71150;SDS011;59071;42.138;24.768;2024-01-06T06:38:41;25.60;;;13.00;;
71150;SDS011;59071;42.138;24.768;2024-01-06T06:41:07;21.00;;;12.52;;
71150;SDS011;59071;42.138;24.768;2024-01-06T06:43:32;22.88;;;12.80;;
71150;SDS011;59071;42.138;24.768;2024-01-06T06:45:57;22.05;;;12.48;;
71150;SDS011;59071;42.138;24.768;2024-01-06T06:48:23;22.85;;;12.80;;
71150;SDS011;59071;42.138;24.768;2024-01-06T06:50:48;23.60;;;13.32;;
71150;SDS011;59071;42.138;24.768;2024-01-06T06:53:13;22.30;;;12.38;;
71150;SDS011;59071;42.138;24.768;2024-01-06T06:55:39;19.73;;;12.50;;
71150;SDS011;59071;42.138;24.768;2024-01-06T06:58:05;20.15;;;12.40;;
71150;SDS011;59071;42.138;24.768;2024-01-06T07:00:31;23.92;;;12.48;;
71150;SDS011;59071;42.138;24.768;2024-01-06T07:02:57;21.33;;;12.10;;
71150;SDS011;59071;42.138;24.768;2024-01-06T07:05:23;22.80;;;12.43;;
71150;SDS011;59071;42.138;24.768;2024-01-06T07:07:49;23.63;;;12.60;;
71150;SDS011;59071;42.138;24.768;2024-01-06T07:10:14;24.15;;;12.93;;
71150;SDS011;59071;42.138;24.768;2024-01-06T07:12:39;26.85;;;12.85;;
71150;SDS011;59071;42.138;24.768;2024-01-06T07:15:05;24.02;;;13.32;;
71150;SDS011;59071;42.138;24.768;2024-01-06T07:17:30;24.77;;;13.40;;
71150;SDS011;59071;42.138;24.768;2024-01-06T07:19:56;27.67;;;14.07;;
71150;SDS011;59071;42.138;24.768;2024-01-06T07:22:21;25.27;;;14.00;;
71150;SDS011;59071;42.138;24.768;2024-01-06T07:24:47;24.33;;;13.00;;
71150;SDS011;59071;42.138;24.768;2024-01-06T07:27:12;25.95;;;14.15;;
71150;SDS011;59071;42.138;24.768;2024-01-06T07:29:38;30.33;;;13.57;;
71150;SDS011;59071;42.138;24.768;2024-01-06T07:32:04;22.33;;;14.07;;
71150;SDS011;59071;42.138;24.768;2024-01-06T07:34:31;29.30;;;14.63;;
71150;SDS011;59071;42.138;24.768;2024-01-06T07:36:56;27.17;;;14.10;;
71150;SDS011;59071;42.138;24.768;2024-01-06T07:39:22;23.67;;;13.90;;
71150;SDS011;59071;42.138;24.768;2024-01-06T07:41:49;31.73;;;14.93;;
71150;SDS011;59071;42.138;24.768;2024-01-06T07:44:14;57.47;;;26.77;;
71150;SDS011;59071;42.138;24.768;2024-01-06T07:46:41;29.00;;;16.08;;
71150;SDS011;59071;42.138;24.768;2024-01-06T07:49:07;36.55;;;17.10;;
71150;SDS011;59071;42.138;24.768;2024-01-06T07:51:32;28.83;;;17.27;;
71150;SDS011;59071;42.138;24.768;2024-01-06T07:53:59;30.48;;;17.48;;
71150;SDS011;59071;42.138;24.768;2024-01-06T07:56:25;33.10;;;16.45;;
71150;SDS011;59071;42.138;24.768;2024-01-06T07:58:51;28.33;;;16.35;;
71150;SDS011;59071;42.138;24.768;2024-01-06T08:01:17;33.20;;;16.60;;
71150;SDS011;59071;42.138;24.768;2024-01-06T08:03:43;29.60;;;15.98;;
71150;SDS011;59071;42.138;24.768;2024-01-06T08:06:09;29.30;;;15.75;;
71150;SDS011;59071;42.138;24.768;2024-01-06T08:08:34;26.08;;;15.18;;
71150;SDS011;59071;42.138;24.768;2024-01-06T08:11:00;29.13;;;15.73;;
71150;SDS011;59071;42.138;24.768;2024-01-06T08:13:27;32.50;;;16.73;;
71150;SDS011;59071;42.138;24.768;2024-01-06T08:15:52;34.60;;;17.35;;
71150;SDS011;59071;42.138;24.768;2024-01-06T08:18:18;39.15;;;17.35;;
71150;SDS011;59071;42.138;24.768;2024-01-06T08:20:43;30.80;;;17.80;;
71150;SDS011;59071;42.138;24.768;2024-01-06T08:23:09;34.45;;;17.85;;
71150;SDS011;59071;42.138;24.768;2024-01-06T08:25:35;30.10;;;16.63;;
71150;SDS011;59071;42.138;24.768;2024-01-06T08:28:01;32.17;;;17.38;;
71150;SDS011;59071;42.138;24.768;2024-01-06T08:30:26;34.25;;;17.92;;
71150;SDS011;59071;42.138;24.768;2024-01-06T08:32:51;36.72;;;18.45;;
71150;SDS011;59071;42.138;24.768;2024-01-06T08:35:17;35.05;;;19.20;;
71150;SDS011;59071;42.138;24.768;2024-01-06T08:37:44;36.15;;;17.20;;
71150;SDS011;59071;42.138;24.768;2024-01-06T08:40:09;36.55;;;17.60;;
71150;SDS011;59071;42.138;24.768;2024-01-06T08:42:35;37.35;;;18.30;;
71150;SDS011;59071;42.138;24.768;2024-01-06T08:45:01;28.52;;;17.17;;
71150;SDS011;59071;42.138;24.768;2024-01-06T08:47:27;44.72;;;20.05;;
71150;SDS011;59071;42.138;24.768;2024-01-06T08:49:52;40.60;;;20.50;;
71150;SDS011;59071;42.138;24.768;2024-01-06T08:52:17;36.35;;;19.17;;
71150;SDS011;59071;42.138;24.768;2024-01-06T08:54:43;38.95;;;19.98;;
71150;SDS011;59071;42.138;24.768;2024-01-06T08:57:09;38.88;;;21.23;;
71150;SDS011;59071;42.138;24.768;2024-01-06T08:59:35;39.50;;;20.75;;
71150;SDS011;59071;42.138;24.768;2024-01-06T09:02:00;41.65;;;22.52;;
71150;SDS011;59071;42.138;24.768;2024-01-06T09:04:26;46.75;;;22.70;;
71150;SDS011;59071;42.138;24.768;2024-01-06T09:06:51;45.47;;;22.10;;
71150;SDS011;59071;42.138;24.768;2024-01-06T09:09:17;46.28;;;23.40;;
71150;SDS011;59071;42.138;24.768;2024-01-06T09:11:42;46.63;;;24.30;;
71150;SDS011;59071;42.138;24.768;2024-01-06T09:14:09;46.00;;;24.85;;
71150;SDS011;59071;42.138;24.768;2024-01-06T09:16:35;41.33;;;21.58;;
71150;SDS011;59071;42.138;24.768;2024-01-06T09:19:02;45.90;;;23.08;;
71150;SDS011;59071;42.138;24.768;2024-01-06T09:21:27;38.42;;;21.13;;
71150;SDS011;59071;42.138;24.768;2024-01-06T09:23:52;43.35;;;22.70;;
71150;SDS011;59071;42.138;24.768;2024-01-06T09:26:18;40.22;;;21.70;;
71150;SDS011;59071;42.138;24.768;2024-01-06T09:28:43;44.88;;;20.55;;
71150;SDS011;59071;42.138;24.768;2024-01-06T09:31:09;44.17;;;21.80;;
71150;SDS011;59071;42.138;24.768;2024-01-06T09:33:34;36.33;;;20.40;;
71150;SDS011;59071;42.138;24.768;2024-01-06T09:36:00;42.90;;;20.13;;
71150;SDS011;59071;42.138;24.768;2024-01-06T09:38:26;44.05;;;20.67;;
71150;SDS011;59071;42.138;24.768;2024-01-06T09:40:51;38.03;;;21.77;;
71150;SDS011;59071;42.138;24.768;2024-01-06T09:43:19;40.65;;;20.80;;
71150;SDS011;59071;42.138;24.768;2024-01-06T09:45:45;38.53;;;20.75;;
71150;SDS011;59071;42.138;24.768;2024-01-06T09:48:20;48.58;;;21.42;;
71150;SDS011;59071;42.138;24.768;2024-01-06T09:50:50;34.38;;;20.25;;
71150;SDS011;59071;42.138;24.768;2024-01-06T09:53:21;34.40;;;19.88;;
71150;SDS011;59071;42.138;24.768;2024-01-06T09:55:52;32.97;;;17.73;;
71150;SDS011;59071;42.138;24.768;2024-01-06T09:58:19;34.40;;;16.75;;
71150;SDS011;59071;42.138;24.768;2024-01-06T10:00:44;35.58;;;17.30;;
71150;SDS011;59071;42.138;24.768;2024-01-06T10:03:10;31.45;;;17.45;;
71150;SDS011;59071;42.138;24.768;2024-01-06T10:05:35;37.00;;;17.17;;
71150;SDS011;59071;42.138;24.768;2024-01-06T10:08:01;32.22;;;17.33;;
71150;SDS011;59071;42.138;24.768;2024-01-06T10:10:29;31.67;;;16.80;;
71150;SDS011;59071;42.138;24.768;2024-01-06T10:12:54;34.75;;;17.63;;
71150;SDS011;59071;42.138;24.768;2024-01-06T10:15:20;39.05;;;19.52;;
71150;SDS011;59071;42.138;24.768;2024-01-06T10:17:46;37.85;;;18.92;;
71150;SDS011;59071;42.138;24.768;2024-01-06T10:20:12;35.20;;;19.23;;
71150;SDS011;59071;42.138;24.768;2024-01-06T10:22:41;40.05;;;19.25;;
71150;SDS011;59071;42.138;24.768;2024-01-06T10:25:08;45.20;;;21.15;;
71150;SDS011;59071;42.138;24.768;2024-01-06T10:27:35;36.95;;;21.17;;
71150;SDS011;59071;42.138;24.768;2024-01-06T10:30:01;38.03;;;18.42;;
71150;SDS011;59071;42.138;24.768;2024-01-06T10:32:27;39.92;;;19.45;;
71150;SDS011;59071;42.138;24.768;2024-01-06T10:34:55;36.80;;;18.13;;
71150;SDS011;59071;42.138;24.768;2024-01-06T10:37:21;37.55;;;18.75;;
71150;SDS011;59071;42.138;24.768;2024-01-06T10:39:46;37.70;;;18.63;;
71150;SDS011;59071;42.138;24.768;2024-01-06T10:42:12;38.40;;;16.75;;
71150;SDS011;59071;42.138;24.768;2024-01-06T10:44:39;34.33;;;16.48;;
71150;SDS011;59071;42.138;24.768;2024-01-06T10:47:07;33.78;;;16.17;;
71150;SDS011;59071;42.138;24.768;2024-01-06T10:49:33;31.17;;;15.88;;
71150;SDS011;59071;42.138;24.768;2024-01-06T10:52:00;27.52;;;13.77;;
71150;SDS011;59071;42.138;24.768;2024-01-06T10:54:26;31.90;;;16.58;;
71150;SDS011;59071;42.138;24.768;2024-01-06T10:56:53;31.55;;;16.55;;
71150;SDS011;59071;42.138;24.768;2024-01-06T10:59:18;30.50;;;15.45;;
71150;SDS011;59071;42.138;24.768;2024-01-06T11:01:47;29.38;;;16.13;;
71150;SDS011;59071;42.138;24.768;2024-01-06T11:04:14;27.95;;;14.68;;
71150;SDS011;59071;42.138;24.768;2024-01-06T11:06:40;25.35;;;14.10;;
71150;SDS011;59071;42.138;24.768;2024-01-06T11:09:11;23.38;;;12.63;;
71150;SDS011;59071;42.138;24.768;2024-01-06T11:11:43;29.30;;;14.18;;
71150;SDS011;59071;42.138;24.768;2024-01-06T11:14:22;29.50;;;14.48;;
71150;SDS011;59071;42.138;24.768;2024-01-06T11:16:50;25.58;;;13.10;;
71150;SDS011;59071;42.138;24.768;2024-01-06T11:20:02;22.58;;;13.45;;
71150;SDS011;59071;42.138;24.768;2024-01-06T11:24:49;26.95;;;15.85;;
71150;SDS011;59071;42.138;24.768;2024-01-06T11:27:26;29.20;;;15.60;;
71150;SDS011;59071;42.138;24.768;2024-01-06T11:29:55;27.67;;;15.73;;
71150;SDS011;59071;42.138;24.768;2024-01-06T11:34:55;28.67;;;14.70;;
71150;SDS011;59071;42.138;24.768;2024-01-06T11:40:16;23.70;;;14.25;;
71150;SDS011;59071;42.138;24.768;2024-01-06T11:42:47;28.25;;;15.20;;
71150;SDS011;59071;42.138;24.768;2024-01-06T11:45:14;26.05;;;13.70;;
71150;SDS011;59071;42.138;24.768;2024-01-06T11:47:40;27.67;;;14.43;;
71150;SDS011;59071;42.138;24.768;2024-01-06T11:50:12;26.80;;;14.63;;
71150;SDS011;59071;42.138;24.768;2024-01-06T11:52:38;25.40;;;14.23;;
71150;SDS011;59071;42.138;24.768;2024-01-06T11:55:04;23.58;;;14.88;;
71150;SDS011;59071;42.138;24.768;2024-01-06T11:57:30;27.30;;;14.10;;
71150;SDS011;59071;42.138;24.768;2024-01-06T11:59:55;25.80;;;14.57;;
71150;SDS011;59071;42.138;24.768;2024-01-06T12:02:21;27.58;;;15.25;;
71150;SDS011;59071;42.138;24.768;2024-01-06T12:04:50;28.83;;;15.10;;
71150;SDS011;59071;42.138;24.768;2024-01-06T12:07:16;28.50;;;16.52;;
71150;SDS011;59071;42.138;24.768;2024-01-06T12:09:43;30.13;;;16.33;;
71150;SDS011;59071;42.138;24.768;2024-01-06T12:12:12;27.50;;;15.93;;
71150;SDS011;59071;42.138;24.768;2024-01-06T12:14:40;27.42;;;14.50;;
71150;SDS011;59071;42.138;24.768;2024-01-06T12:17:10;28.08;;;14.38;;
71150;SDS011;59071;42.138;24.768;2024-01-06T12:19:38;28.42;;;14.77;;
71150;SDS011;59071;42.138;24.768;2024-01-06T12:22:04;26.83;;;15.15;;
71150;SDS011;59071;42.138;24.768;2024-01-06T12:24:30;23.80;;;15.07;;
71150;SDS011;59071;42.138;24.768;2024-01-06T12:26:56;23.27;;;14.00;;
71150;SDS011;59071;42.138;24.768;2024-01-06T12:29:28;31.13;;;15.55;;
71150;SDS011;59071;42.138;24.768;2024-01-06T12:31:54;22.33;;;12.23;;
71150;SDS011;59071;42.138;24.768;2024-01-06T12:34:20;27.88;;;14.85;;
71150;SDS011;59071;42.138;24.768;2024-01-06T12:36:46;25.17;;;13.55;;
71150;SDS011;59071;42.138;24.768;2024-01-06T12:39:12;19.75;;;11.77;;
71150;SDS011;59071;42.138;24.768;2024-01-06T12:41:39;21.52;;;12.80;;
71150;SDS011;59071;42.138;24.768;2024-01-06T12:44:06;24.27;;;13.52;;
71150;SDS011;59071;42.138;24.768;2024-01-06T12:46:32;22.08;;;12.52;;
71150;SDS011;59071;42.138;24.768;2024-01-06T12:48:58;22.45;;;13.23;;
71150;SDS011;59071;42.138;24.768;2024-01-06T12:51:23;22.50;;;14.00;;
71150;SDS011;59071;42.138;24.768;2024-01-06T12:53:49;23.13;;;13.23;;
71150;SDS011;59071;42.138;24.768;2024-01-06T12:56:14;22.02;;;13.25;;
71150;SDS011;59071;42.138;24.768;2024-01-06T12:58:40;21.98;;;12.98;;
71150;SDS011;59071;42.138;24.768;2024-01-06T13:01:06;25.10;;;12.88;;
71150;SDS011;59071;42.138;24.768;2024-01-06T13:03:32;24.35;;;13.52;;
71150;SDS011;59071;42.138;24.768;2024-01-06T13:05:58;18.08;;;10.30;;
71150;SDS011;59071;42.138;24.768;2024-01-06T13:08:24;16.05;;;9.80;;
71150;SDS011;59071;42.138;24.768;2024-01-06T13:10:50;15.70;;;9.40;;
71150;SDS011;59071;42.138;24.768;2024-01-06T13:13:15;17.05;;;9.13;;
71150;SDS011;59071;42.138;24.768;2024-01-06T13:15:40;15.98;;;9.40;;
71150;SDS011;59071;42.138;24.768;2024-01-06T13:18:06;16.67;;;9.43;;
71150;SDS011;59071;42.138;24.768;2024-01-06T13:20:31;16.95;;;9.82;;
71150;SDS011;59071;42.138;24.768;2024-01-06T13:22:57;16.27;;;10.05;;
71150;SDS011;59071;42.138;24.768;2024-01-06T13:25:22;19.52;;;9.55;;
71150;SDS011;59071;42.138;24.768;2024-01-06T13:27:51;17.98;;;9.88;;
71150;SDS011;59071;42.138;24.768;2024-01-06T13:30:16;16.65;;;9.55;;
71150;SDS011;59071;42.138;24.768;2024-01-06T13:32:42;14.55;;;9.07;;
71150;SDS011;59071;42.138;24.768;2024-01-06T13:35:08;16.33;;;9.25;;
71150;SDS011;59071;42.138;24.768;2024-01-06T13:37:35;16.83;;;9.45;;
71150;SDS011;59071;42.138;24.768;2024-01-06T13:40:01;15.55;;;9.85;;
71150;SDS011;59071;42.138;24.768;2024-01-06T13:42:26;15.85;;;8.80;;
71150;SDS011;59071;42.138;24.768;2024-01-06T13:44:51;15.02;;;8.30;;
71150;SDS011;59071;42.138;24.768;2024-01-06T13:47:17;14.02;;;8.00;;
71150;SDS011;59071;42.138;24.768;2024-01-06T13:49:42;16.27;;;8.32;;
71150;SDS011;59071;42.138;24.768;2024-01-06T13:52:07;16.05;;;9.23;;
71150;SDS011;59071;42.138;24.768;2024-01-06T13:54:34;16.67;;;8.45;;
71150;SDS011;59071;42.138;24.768;2024-01-06T13:57:00;14.55;;;8.40;;
71150;SDS011;59071;42.138;24.768;2024-01-06T13:59:25;14.80;;;7.47;;
71150;SDS011;59071;42.138;24.768;2024-01-06T14:01:50;14.43;;;7.05;;
71150;SDS011;59071;42.138;24.768;2024-01-06T14:04:16;12.63;;;7.75;;
71150;SDS011;59071;42.138;24.768;2024-01-06T14:06:42;16.80;;;7.72;;
71150;SDS011;59071;42.138;24.768;2024-01-06T14:09:08;13.60;;;7.47;;